Time;durP1;ratioP1;P1;durP2;ratioP2;P2;SDS_P1;SDS_P2;PMS_P1;PMS_P2;Temp;Humidity;BMP_temperature;BMP_pressure;BME280_temperature;BME280_humidity;BME280_pressure;Samples;Min_cycle;Max_cycle;Signal;HPM_P1;HPM_P2
2022/10/05 00:01:14;;;;;;;10.80;9.07;;;11.60;99.90;;;;;;6311568;22;20820;-62
2022/10/05 00:03:43;;;;;;;10.57;7.80;;;11.60;1.00;;;;;;6311086;22;20511;-62
2022/10/05 00:06:12;;;;;;;10.00;8.30;;;11.70;1.00;;;;;;6310882;22;20395;-62
2022/10/05 00:08:39;;;;;;;9.30;8.17;;;11.70;19.50;;;;;;6310807;22;20448;-62
2022/10/05 00:11:08;;;;;;;8.60;7.70;;;11.70;99.90;;;;;;6311608;22;20444;-62
2022/10/05 00:13:36;;;;;;;12.13;8.33;;;11.70;99.90;;;;;;6310494;22;20455;-62
2022/10/05 00:16:12;;;;;;;9.63;8.63;;;11.70;80.50;;;;;;6310790;22;20827;-62
2022/10/05 00:18:40;;;;;;;10.23;8.70;;;11.60;1.00;;;;;;6310612;22;20416;-62
2022/10/05 00:21:17;;;;;;;11.83;8.67;;;11.60;1.00;;;;;;6310745;22;20664;-62
2022/10/05 00:23:45;;;;;;;10.23;9.23;;;11.60;99.90;;;;;;6310854;22;20713;-62
2022/10/05 00:26:17;;;;;;;14.83;9.13;;;11.50;99.90;;;;;;6310630;22;20439;-62
2022/10/05 00:28:44;;;;;;;10.07;8.07;;;11.50;99.90;;;;;;6310176;22;20747;-62
2022/10/05 00:31:16;;;;;;;10.23;8.73;;;11.50;99.90;;;;;;6311106;22;20419;-62
2022/10/05 00:33:43;;;;;;;10.40;9.10;;;11.50;99.90;;;;;;6310552;22;20983;-62
2022/10/05 00:36:13;;;;;;;9.97;8.70;;;11.50;1.00;;;;;;6310932;22;20412;-62
2022/10/05 00:38:43;;;;;;;15.17;9.03;;;11.60;99.90;;;;;;6310877;22;20838;-62
2022/10/05 00:41:19;;;;;;;10.63;9.13;;;11.60;1.00;;;;;;6310073;22;20417;-62
2022/10/05 00:44:07;;;;;;;11.33;8.67;;;11.60;99.90;;;;;;6310122;22;20420;-62
2022/10/05 00:46:46;;;;;;;11.37;8.13;;;11.50;99.90;;;;;;6309808;22;20758;-62
2022/10/05 00:49:26;;;;;;;12.20;9.33;;;11.50;99.90;;;;;;6310210;22;20416;-62
2022/10/05 00:52:04;;;;;;;9.93;8.67;;;11.50;1.00;;;;;;6310568;22;20440;-62
2022/10/05 00:54:37;;;;;;;17.47;9.53;;;11.50;79.20;;;;;;6309651;22;20434;-62
2022/10/05 00:57:18;;;;;;;12.60;9.67;;;11.50;99.90;;;;;;6311029;22;20804;-62
2022/10/05 00:59:55;;;;;;;11.80;9.07;;;11.50;99.90;;;;;;6310547;22;20842;-62
2022/10/05 01:02:30;;;;;;;28.03;9.63;;;11.60;99.90;;;;;;6310630;22;20797;-62
2022/10/05 01:05:03;;;;;;;10.03;9.03;;;11.60;90.70;;;;;;6310120;22;20700;-62
2022/10/05 01:07:40;;;;;;;9.90;8.70;;;11.60;99.90;;;;;;6310574;22;20710;-62
2022/10/05 01:10:16;;;;;;;12.93;8.83;;;11.60;99.90;;;;;;6310180;22;20499;-62
2022/10/05 01:12:53;;;;;;;11.67;9.20;;;11.60;1.00;;;;;;6310033;22;20859;-61
2022/10/05 01:15:29;;;;;;;9.60;8.53;;;11.70;1.00;;;;;;6310009;22;20686;-62
2022/10/05 01:18:05;;;;;;;12.53;9.40;;;11.80;1.00;;;;;;6309444;22;20416;-62
2022/10/05 01:20:41;;;;;;;10.63;9.53;;;11.80;1.00;;;;;;6309914;22;20423;-62
2022/10/05 01:23:30;;;;;;;11.20;9.53;;;11.80;99.90;;;;;;6310129;22;20393;-62
2022/10/05 01:26:22;;;;;;;11.23;8.60;;;11.80;99.90;;;;;;6308792;22;20440;-62
2022/10/05 01:28:54;;;;;;;10.90;9.40;;;11.60;1.00;;;;;;6309747;22;20420;-62
2022/10/05 01:31:28;;;;;;;12.80;9.50;;;11.60;99.90;;;;;;6310254;22;20415;-62
2022/10/05 01:34:03;;;;;;;12.07;9.47;;;11.60;99.90;;;;;;6309661;22;20422;-62
2022/10/05 01:36:40;;;;;;;13.43;9.00;;;11.60;99.90;;;;;;6308769;22;20415;-62
2022/10/05 01:39:16;;;;;;;11.83;9.07;;;11.60;99.90;;;;;;6309543;22;20416;-62
2022/10/05 01:41:51;;;;;;;9.87;8.83;;;11.60;49.60;;;;;;6309705;22;20419;-62
2022/10/05 01:44:30;;;;;;;13.37;8.40;;;11.60;1.00;;;;;;6309705;22;20687;-62
2022/10/05 01:47:07;;;;;;;16.53;10.23;;;11.60;1.00;;;;;;6309300;22;20416;-62
2022/10/05 01:49:38;;;;;;;12.03;9.40;;;11.60;99.90;;;;;;6309871;22;20419;-62
2022/10/05 01:52:17;;;;;;;13.70;8.50;;;11.50;53.50;;;;;;6309565;22;20893;-62
2022/10/05 01:54:56;;;;;;;15.80;9.70;;;11.50;1.00;;;;;;6309509;22;20423;-62
2022/10/05 01:57:35;;;;;;;11.40;9.60;;;11.40;1.00;;;;;;6309595;22;20422;-62
2022/10/05 02:00:08;;;;;;;10.97;8.70;;;11.40;99.90;;;;;;6309531;22;20416;-62
2022/10/05 02:02:39;;;;;;;10.57;8.30;;;11.40;1.00;;;;;;6309923;22;20511;-62
2022/10/05 02:05:12;;;;;;;11.33;8.43;;;11.30;99.90;;;;;;6309484;22;20914;-62
2022/10/05 02:07:43;;;;;;;9.10;8.20;;;11.30;99.90;;;;;;6310025;22;20860;-62
2022/10/05 02:10:25;;;;;;;10.00;8.40;;;11.30;1.00;;;;;;6309350;22;20423;-62
2022/10/05 02:13:01;;;;;;;12.77;9.10;;;11.30;78.00;;;;;;6309550;22;20544;-62
2022/10/05 02:15:40;;;;;;;9.47;8.50;;;11.40;99.90;;;;;;6309453;22;20451;-62
2022/10/05 02:18:13;;;;;;;10.77;8.67;;;11.40;54.40;;;;;;6309196;22;20532;-62
2022/10/05 02:20:44;;;;;;;12.27;8.03;;;11.40;1.00;;;;;;6309701;22;20469;-62
2022/10/05 02:23:16;;;;;;;9.20;8.30;;;11.40;1.00;;;;;;6309605;22;20420;-62
2022/10/05 02:25:46;;;;;;;9.73;8.73;;;11.40;1.00;;;;;;6308637;22;20443;-62
2022/10/05 02:28:20;;;;;;;11.33;8.77;;;11.40;1.00;;;;;;6308957;22;20394;-62
2022/10/05 02:30:53;;;;;;;11.47;8.50;;;11.40;99.90;;;;;;6309441;22;20394;-62
2022/10/05 02:33:27;;;;;;;11.50;8.77;;;11.40;99.90;;;;;;6310070;22;20450;-62
2022/10/05 02:35:55;;;;;;;9.27;8.23;;;11.50;40.60;;;;;;6309017;22;20511;-62
2022/10/05 02:38:32;;;;;;;9.63;8.63;;;11.40;46.30;;;;;;6308744;22;20426;-62
2022/10/05 02:41:10;;;;;;;11.73;8.77;;;11.50;1.00;;;;;;6311252;22;20514;-62
2022/10/05 02:43:48;;;;;;;12.97;7.90;;;11.50;99.90;;;;;;6310948;22;20416;-62
2022/10/05 02:46:26;;;;;;;10.40;8.90;;;11.50;99.90;;;;;;6310782;22;20420;-63
2022/10/05 02:49:04;;;;;;;12.17;7.57;;;11.40;1.00;;;;;;6310882;22;20393;-62
2022/10/05 02:51:41;;;;;;;12.93;8.57;;;11.40;28.70;;;;;;6311244;22;20450;-62
2022/10/05 02:54:18;;;;;;;9.93;8.70;;;11.50;64.20;;;;;;6311623;22;20854;-62
2022/10/05 02:56:54;;;;;;;10.13;7.90;;;11.50;1.00;;;;;;6312054;22;20462;-62
2022/10/05 02:59:30;;;;;;;11.83;8.30;;;11.40;99.90;;;;;;6310529;22;20884;-62
2022/10/05 03:02:07;;;;;;;8.80;7.60;;;11.40;99.90;;;;;;6310749;22;20455;-62
2022/10/05 03:04:41;;;;;;;9.27;7.70;;;11.40;99.90;;;;;;6311513;22;20752;-62
2022/10/05 03:07:16;;;;;;;8.63;7.70;;;11.40;99.90;;;;;;6311229;22;20874;-62
2022/10/05 03:09:49;;;;;;;10.50;8.23;;;11.50;99.90;;;;;;6310989;22;20423;-62
2022/10/05 03:12:34;;;;;;;17.13;9.43;;;11.40;1.00;;;;;;6311455;22;20894;-62
2022/10/05 03:15:11;;;;;;;9.43;7.93;;;11.40;1.00;;;;;;6311704;22;20391;-62
2022/10/05 03:17:49;;;;;;;9.90;8.40;;;11.40;1.00;;;;;;6311415;22;20416;-62
2022/10/05 03:20:31;;;;;;;9.90;8.23;;;11.50;35.10;;;;;;6310307;22;20420;-62
2022/10/05 03:23:01;;;;;;;12.33;8.80;;;11.40;1.00;;;;;;6311362;22;20438;-62
2022/10/05 03:25:40;;;;;;;10.27;8.90;;;11.40;1.00;;;;;;6311233;22;20758;-62
2022/10/05 03:28:15;;;;;;;10.33;8.87;;;11.40;99.90;;;;;;6310394;22;20416;-62
2022/10/05 03:30:47;;;;;;;10.40;8.97;;;11.50;1.00;;;;;;6309282;22;20426;-62
2022/10/05 03:33:24;;;;;;;10.83;8.50;;;11.60;1.00;;;;;;6311206;22;20531;-62
2022/10/05 03:36:06;;;;;;;9.57;8.20;;;11.60;99.90;;;;;;6311118;22;20408;-62
2022/10/05 03:38:41;;;;;;;9.63;8.47;;;11.60;99.90;;;;;;6310939;22;20395;-62
2022/10/05 03:41:18;;;;;;;11.70;8.77;;;11.60;99.90;;;;;;6310574;22;20854;-62
2022/10/05 03:44:20;;;;;;;11.90;9.50;;;11.60;1.00;;;;;;6310920;22;20414;-62
2022/10/05 03:46:58;;;;;;;12.40;9.47;;;11.60;1.00;;;;;;6310667;22;20422;-62
2022/10/05 03:49:34;;;;;;;20.10;10.30;;;11.60;99.90;;;;;;6309911;22;20415;-62
2022/10/05 03:52:10;;;;;;;12.83;9.63;;;11.60;1.00;;;;;;6309263;22;20414;-62
2022/10/05 03:54:42;;;;;;;11.50;9.60;;;11.60;1.00;;;;;;6310553;22;20795;-62
2022/10/05 03:57:13;;;;;;;13.23;9.97;;;11.60;1.00;;;;;;6310373;22;20420;-62
2022/10/05 03:59:44;;;;;;;9.40;8.40;;;11.70;1.00;;;;;;6310981;22;20416;-62
2022/10/05 04:02:19;;;;;;;11.40;9.10;;;11.60;99.90;;;;;;6310118;22;20707;-62
2022/10/05 04:04:55;;;;;;;11.23;8.07;;;11.70;99.90;;;;;;6310041;22;20417;-62
2022/10/05 04:07:32;;;;;;;10.30;9.20;;;11.70;99.90;;;;;;6310652;22;20933;-62
2022/10/05 04:10:00;;;;;;;10.77;8.70;;;11.70;1.00;;;;;;6309980;22;20393;-62
2022/10/05 04:12:33;;;;;;;12.83;9.47;;;11.70;1.00;;;;;;6309563;22;20542;-62
2022/10/05 04:15:07;;;;;;;10.40;9.20;;;11.70;1.00;;;;;;6310599;22;20509;-62
2022/10/05 04:17:39;;;;;;;13.03;9.33;;;11.80;1.00;;;;;;6310492;22;20396;-63
2022/10/05 04:20:18;;;;;;;12.17;9.00;;;11.80;1.00;;;;;;6309364;22;20511;-62
2022/10/05 04:22:51;;;;;;;11.40;8.97;;;11.80;99.90;;;;;;6309713;22;20416;-62
2022/10/05 04:25:24;;;;;;;12.57;9.40;;;11.70;99.90;;;;;;6310277;22;20415;-62
2022/10/05 04:27:58;;;;;;;10.17;9.10;;;11.70;99.90;;;;;;6310127;22;20412;-62
2022/10/05 04:30:26;;;;;;;11.97;9.60;;;11.70;99.90;;;;;;6310340;22;20490;-62
2022/10/05 04:32:56;;;;;;;10.03;8.90;;;11.70;99.90;;;;;;6309565;22;20483;-62
2022/10/05 04:35:50;;;;;;;11.27;8.77;;;11.70;99.90;;;;;;6309338;22;20420;-62
2022/10/05 04:38:37;;;;;;;12.10;9.60;;;11.70;99.90;;;;;;6292200;22;20424;-62
2022/10/05 04:41:16;;;;;;;13.80;8.90;;;11.70;99.90;;;;;;6310467;22;20413;-62
2022/10/05 04:43:53;;;;;;;10.43;8.97;;;11.80;1.00;;;;;;6309795;22;20386;-62
2022/10/05 04:46:37;;;;;;;12.07;9.83;;;11.80;99.90;;;;;;6310041;22;20420;-62
2022/10/05 04:49:31;;;;;;;12.83;8.83;;;11.70;99.90;;;;;;6310172;22;20515;-62
2022/10/05 04:52:05;;;;;;;13.23;9.90;;;11.70;99.90;;;;;;6309400;22;20389;-62
2022/10/05 04:54:47;;;;;;;10.90;9.20;;;11.70;99.90;;;;;;6309339;22;20422;-63
2022/10/05 04:57:19;;;;;;;12.40;10.33;;;11.60;1.00;;;;;;6309658;22;20771;-62
2022/10/05 05:00:09;;;;;;;13.90;10.73;;;11.60;99.90;;;;;;6310443;22;20481;-62
2022/10/05 05:02:55;;;;;;;10.63;9.30;;;11.70;99.90;;;;;;6309522;22;20438;-62
2022/10/05 05:05:35;;;;;;;11.87;10.30;;;11.70;1.00;;;;;;6309703;22;20430;-63
2022/10/05 05:08:25;;;;;;;11.63;10.00;;;11.70;99.90;;;;;;6309410;22;20427;-62
2022/10/05 05:11:20;;;;;;;11.90;8.83;;;11.70;99.90;;;;;;6309737;22;20424;-63
2022/10/05 05:14:14;;;;;;;11.90;9.43;;;11.80;1.00;;;;;;6309926;22;20724;-62
2022/10/05 05:16:43;;;;;;;11.23;9.57;;;11.80;99.90;;;;;;6309024;22;20416;-62
2022/10/05 05:19:28;;;;;;;11.70;10.00;;;11.80;99.90;;;;;;6309829;22;20473;-62
2022/10/05 05:22:17;;;;;;;11.23;9.23;;;11.80;5.90;;;;;;6309195;22;20394;-62
2022/10/05 05:25:03;;;;;;;11.90;8.83;;;11.80;1.00;;;;;;6308981;22;20423;-62
2022/10/05 05:27:43;;;;;;;12.73;8.83;;;11.80;1.00;;;;;;6309704;22;20418;-62
2022/10/05 05:30:30;;;;;;;11.23;9.90;;;11.80;1.00;;;;;;6309771;22;20396;-62
2022/10/05 05:33:18;;;;;;;10.37;9.30;;;11.80;1.00;;;;;;6309411;22;20455;-62
2022/10/05 05:36:24;;;;;;;11.13;9.07;;;11.90;1.00;;;;;;6309399;22;20417;-62
2022/10/05 05:39:04;;;;;;;12.40;9.43;;;11.90;1.00;;;;;;6309506;22;20433;-62
2022/10/05 05:41:39;;;;;;;11.70;9.23;;;11.90;99.90;;;;;;6309303;22;20422;-62
2022/10/05 05:44:18;;;;;;;11.63;9.90;;;12.00;99.90;;;;;;6309354;22;20420;-62
2022/10/05 05:46:53;;;;;;;10.83;9.00;;;12.00;99.90;;;;;;6309391;22;20875;-62
2022/10/05 05:49:27;;;;;;;10.57;9.33;;;12.00;1.00;;;;;;6310326;22;20510;-62
2022/10/05 05:51:59;;;;;;;11.80;8.90;;;12.00;1.00;;;;;;6310053;22;20411;-62
2022/10/05 05:54:32;;;;;;;10.20;9.10;;;12.00;1.00;;;;;;6309067;22;20447;-62
2022/10/05 05:57:09;;;;;;;9.73;8.73;;;12.00;1.00;;;;;;6309872;22;20395;-62
2022/10/05 05:59:49;;;;;;;11.10;8.07;;;12.10;1.00;;;;;;6310141;22;20427;-62
2022/10/05 06:02:21;;;;;;;11.83;9.83;;;12.10;1.00;;;;;;6309868;22;20933;-62
2022/10/05 06:04:54;;;;;;;12.00;8.83;;;12.10;1.00;;;;;;6309204;22;20391;-62
2022/10/05 06:07:25;;;;;;;15.70;9.83;;;12.10;1.00;;;;;;6309540;22;20391;-63
2022/10/05 06:10:00;;;;;;;12.03;9.17;;;12.20;1.00;;;;;;6310069;22;20474;-62
2022/10/05 06:12:34;;;;;;;12.23;9.07;;;12.20;99.90;;;;;;6309839;22;20761;-62
2022/10/05 06:15:13;;;;;;;11.60;8.70;;;12.20;99.90;;;;;;6311071;22;20526;-62
2022/10/05 06:17:45;;;;;;;9.33;8.43;;;12.20;99.90;;;;;;6312650;22;20390;-62
2022/10/05 06:20:22;;;;;;;10.87;9.10;;;12.30;99.90;;;;;;6311757;22;20394;-60
2022/10/05 06:22:52;;;;;;;12.83;9.47;;;12.30;99.90;;;;;;6311381;22;20391;-62
2022/10/05 06:25:29;;;;;;;11.07;8.83;;;12.40;99.90;;;;;;6311734;22;20391;-62
2022/10/05 06:28:10;;;;;;;12.73;9.00;;;12.40;99.90;;;;;;6310766;22;20422;-62
2022/10/05 06:30:49;;;;;;;10.27;8.80;;;12.50;99.90;;;;;;6311360;22;20391;-62
2022/10/05 06:33:32;;;;;;;8.87;7.90;;;12.50;99.90;;;;;;6311743;22;20454;-62
2022/10/05 06:36:13;;;;;;;9.37;8.20;;;12.60;99.90;;;;;;6311306;22;20395;-62
2022/10/05 06:39:01;;;;;;;10.80;9.70;;;12.60;99.90;;;;;;6312029;22;20660;-62
2022/10/05 06:41:41;;;;;;;9.80;7.83;;;12.70;59.00;;;;;;6311388;22;20420;-62
2022/10/05 06:44:14;;;;;;;9.53;7.40;;;12.80;17.00;;;;;;6311894;22;20511;-62
2022/10/05 06:46:50;;;;;;;10.60;6.90;;;12.80;1.00;;;;;;6311915;22;20398;-62
2022/10/05 06:49:25;;;;;;;9.67;7.67;;;12.90;1.00;;;;;;6312045;22;20390;-63
2022/10/05 06:51:58;;;;;;;8.10;7.00;;;13.00;1.00;;;;;;6311127;22;20472;-65
2022/10/05 06:54:41;;;;;;;6.70;6.10;;;13.00;1.00;;;;;;6310875;22;20450;-64
2022/10/05 06:57:16;;;;;;;8.40;6.93;;;13.10;1.00;;;;;;6310973;22;20420;-65
2022/10/05 06:59:57;;;;;;;8.00;6.93;;;13.20;1.00;;;;;;6311535;22;20681;-64
2022/10/05 07:02:31;;;;;;;8.80;7.90;;;13.30;1.00;;;;;;6309787;22;20416;-65
2022/10/05 07:05:27;;;;;;;8.80;7.27;;;13.30;1.00;;;;;;6309932;22;20482;-65
2022/10/05 07:07:58;;;;;;;8.17;6.80;;;13.40;1.00;;;;;;6309894;22;20491;-65
2022/10/05 07:10:31;;;;;;;8.87;7.27;;;13.40;1.00;;;;;;6310385;22;20515;-66
2022/10/05 07:13:31;;;;;;;7.03;6.33;;;13.50;1.00;;;;;;6310242;22;20470;-65
2022/10/05 07:16:05;;;;;;;10.10;6.80;;;13.60;1.00;;;;;;6309982;22;20420;-65
2022/10/05 07:18:49;;;;;;;9.60;6.97;;;13.70;1.00;;;;;;6310248;22;20416;-65
2022/10/05 07:21:27;;;;;;;6.93;6.23;;;13.70;1.00;;;;;;6311489;22;20674;-64
2022/10/05 07:24:03;;;;;;;8.77;6.10;;;13.80;1.00;;;;;;6310745;22;20404;-65
2022/10/05 07:26:35;;;;;;;7.23;6.43;;;13.90;1.00;;;;;;6309846;22;20440;-65
2022/10/05 07:29:22;;;;;;;9.00;6.90;;;13.90;1.00;;;;;;6310943;22;20451;-65
2022/10/05 07:32:06;;;;;;;8.43;6.70;;;13.90;1.00;;;;;;6310781;22;20466;-66
2022/10/05 07:34:46;;;;;;;6.93;6.20;;;13.90;1.00;;;;;;6310160;22;20448;-65
2022/10/05 07:40:11;;;;;;;6.70;6.00;;;14.00;1.00;;;;;;6309993;22;20399;-65
2022/10/05 07:42:50;;;;;;;6.90;6.23;;;14.10;1.00;;;;;;6310580;22;20395;-64
2022/10/05 07:45:29;;;;;;;6.77;5.83;;;14.10;1.00;;;;;;6310131;22;20490;-65
2022/10/05 07:48:01;;;;;;;10.27;5.93;;;14.10;1.00;;;;;;6309837;22;20424;-65
2022/10/05 07:50:34;;;;;;;8.33;7.07;;;14.10;1.00;;;;;;6310867;22;20435;-65
2022/10/05 07:53:11;;;;;;;9.23;6.10;;;14.10;1.00;;;;;;6310606;22;20457;-65
2022/10/05 07:55:43;;;;;;;7.50;6.23;;;14.20;1.00;;;;;;6310016;22;20390;-65
2022/10/05 07:58:21;;;;;;;7.33;5.47;;;14.20;1.00;;;;;;6308156;22;20419;-65
2022/10/05 08:01:06;;;;;;;8.40;6.50;;;14.30;1.00;;;;;;6308578;22;20518;-66
2022/10/05 08:03:53;;;;;;;6.00;5.27;;;14.30;1.00;;;;;;6310189;22;20485;-65
2022/10/05 08:06:38;;;;;;;6.53;5.67;;;14.30;1.00;;;;;;6308792;22;20511;-64
2022/10/05 08:09:11;;;;;;;7.10;6.40;;;14.20;1.00;;;;;;6309865;22;20806;-65
2022/10/05 08:11:50;;;;;;;7.43;5.90;;;14.30;1.00;;;;;;6309468;22;20420;-65
2022/10/05 08:14:26;;;;;;;6.83;5.60;;;14.20;1.00;;;;;;6309428;22;20448;-65
2022/10/05 08:16:57;;;;;;;9.10;5.63;;;14.30;1.00;;;;;;6307558;22;20435;-66
2022/10/05 08:19:32;;;;;;;6.43;5.47;;;14.30;1.00;;;;;;6308924;22;20416;-64
2022/10/05 08:22:05;;;;;;;6.80;6.00;;;14.40;1.00;;;;;;6308853;22;20443;-65
2022/10/05 08:24:42;;;;;;;6.87;5.70;;;14.40;1.00;;;;;;6309856;22;20529;-64
2022/10/05 08:27:16;;;;;;;6.17;5.60;;;14.40;1.00;;;;;;6309263;22;20940;-65
2022/10/05 08:29:54;;;;;;;6.17;5.67;;;14.40;1.00;;;;;;6310254;22;20743;-64
2022/10/05 08:32:25;;;;;;;6.93;6.17;;;14.50;1.00;;;;;;6309698;22;20413;-65
2022/10/05 08:34:59;;;;;;;5.80;4.90;;;14.50;99.90;;;;;;6310002;22;20447;-64
2022/10/05 08:37:31;;;;;;;7.00;5.13;;;14.50;1.00;;;;;;6309487;22;20419;-64
2022/10/05 08:40:28;;;;;;;6.70;5.80;;;14.50;1.00;;;;;;6308747;22;20858;-64
2022/10/05 08:43:17;;;;;;;5.60;4.57;;;14.60;99.90;;;;;;6310246;22;20490;-64
2022/10/05 08:46:18;;;;;;;6.23;5.20;;;14.70;99.90;;;;;;6294965;22;20395;-65
2022/10/05 08:49:38;;;;;;;6.50;5.50;;;14.70;99.90;;;;;;6286244;22;20385;-64
2022/10/05 08:52:24;;;;;;;6.23;5.27;;;14.80;99.90;;;;;;6309454;22;20422;-64
2022/10/05 08:55:30;;;;;;;6.23;5.13;;;15.00;99.90;;;;;;6309686;22;20422;-65
2022/10/05 08:58:25;;;;;;;5.93;5.00;;;15.10;99.90;;;;;;6309634;22;20845;-65
2022/10/05 09:00:59;;;;;;;5.97;4.93;;;15.10;99.90;;;;;;6309945;22;20420;-65
2022/10/05 09:04:05;;;;;;;5.70;4.47;;;15.00;99.90;;;;;;6310538;22;20411;-65
2022/10/05 09:07:13;;;;;;;7.20;5.80;;;15.20;99.90;;;;;;6254280;22;20416;-65
2022/10/05 09:10:02;;;;;;;6.50;4.30;;;15.20;99.90;;;;;;6297106;22;20515;-63
2022/10/05 09:13:00;;;;;;;5.97;5.20;;;15.20;99.90;;;;;;6309589;22;20455;-64
2022/10/05 09:15:43;;;;;;;5.00;4.60;;;15.30;99.90;;;;;;6309721;22;20448;-64
2022/10/05 09:18:48;;;;;;;4.23;3.83;;;15.40;99.90;;;;;;6308247;22;20394;-65
2022/10/05 09:21:31;;;;;;;5.20;4.13;;;15.50;99.90;;;;;;6309030;22;20428;-64
2022/10/05 09:24:10;;;;;;;5.37;4.87;;;15.70;99.90;;;;;;6309786;22;20462;-65
2022/10/05 09:26:59;;;;;;;7.40;4.67;;;15.80;99.90;;;;;;6309842;22;20432;-64
2022/10/05 09:30:02;;;;;;;5.47;4.00;;;15.80;99.90;;;;;;6309973;22;20740;-63
2022/10/05 09:33:20;;;;;;;6.53;3.87;;;15.90;99.90;;;;;;6310138;22;20466;-64
2022/10/05 09:36:15;;;;;;;7.33;4.43;;;15.90;99.90;;;;;;6218525;22;20920;-64
2022/10/05 09:39:12;;;;;;;3.97;3.67;;;16.00;99.90;;;;;;6309705;22;20416;-64
2022/10/05 09:42:11;;;;;;;4.37;3.97;;;15.90;99.90;;;;;;6309573;22;20387;-64
2022/10/05 09:45:11;;;;;;;5.60;4.60;;;16.00;99.90;;;;;;6310029;22;20440;-64
2022/10/05 09:48:11;;;;;;;5.83;3.90;;;16.00;99.90;;;;;;6309921;22;20489;-65
2022/10/05 09:51:08;;;;;;;4.17;3.77;;;16.10;99.90;;;;;;6311548;22;20416;-64
2022/10/05 09:54:02;;;;;;;5.27;4.77;;;16.10;99.90;;;;;;6311235;22;20909;-64
2022/10/05 09:57:06;;;;;;;4.53;3.80;;;16.20;99.90;;;;;;6311556;22;20423;-65
2022/10/05 10:00:03;;;;;;;4.23;3.80;;;16.20;99.90;;;;;;6311471;22;20422;-65
2022/10/05 10:03:01;;;;;;;5.27;3.93;;;16.30;99.90;;;;;;6271065;22;20412;-64
2022/10/05 10:05:49;;;;;;;4.90;4.13;;;16.40;99.90;;;;;;6300392;22;20413;-65
2022/10/05 10:08:25;;;;;;;5.77;4.57;;;16.60;99.90;;;;;;6310726;22;20390;-64
2022/10/05 10:11:07;;;;;;;4.70;4.23;;;16.50;99.90;;;;;;6311248;22;20443;-64
2022/10/05 10:13:58;;;;;;;4.20;3.80;;;16.40;99.90;;;;;;6310838;22;20391;-64
2022/10/05 10:16:48;;;;;;;4.33;3.70;;;16.40;99.90;;;;;;6311824;22;20420;-65
2022/10/05 10:19:58;;;;;;;4.93;4.53;;;16.40;99.90;;;;;;6311833;22;20416;-63
2022/10/05 10:22:54;;;;;;;6.00;3.63;;;16.40;99.90;;;;;;6300039;22;20423;-63
2022/10/05 10:25:53;;;;;;;4.70;3.90;;;16.40;99.90;;;;;;6311221;22;20746;-64
2022/10/05 10:28:51;;;;;;;4.03;3.63;;;16.60;99.90;;;;;;6270977;22;20416;-63
2022/10/05 10:31:42;;;;;;;6.53;3.73;;;16.70;99.90;;;;;;6292683;22;20398;-64
2022/10/05 10:34:24;;;;;;;5.00;3.43;;;16.80;99.90;;;;;;6310309;22;20429;-64
2022/10/05 10:37:25;;;;;;;5.13;3.57;;;16.90;99.90;;;;;;6311227;22;20824;-64
2022/10/05 10:40:13;;;;;;;4.03;3.60;;;16.90;99.90;;;;;;6311015;22;20389;-64
2022/10/05 10:42:53;;;;;;;4.50;3.97;;;17.00;99.90;;;;;;6310913;22;20422;-65
2022/10/05 10:45:40;;;;;;;4.10;3.70;;;17.20;99.90;;;;;;6311630;22;20515;-65
2022/10/05 10:48:11;;;;;;;6.90;3.70;;;17.50;99.90;;;;;;6310616;22;20422;-65
2022/10/05 10:51:14;;;;;;;4.47;3.93;;;17.70;99.90;;;;;;6310917;22;20864;-64
2022/10/05 10:54:13;;;;;;;5.80;3.60;;;17.60;99.90;;;;;;6310778;22;20515;-64
2022/10/05 10:56:55;;;;;;;7.20;4.57;;;17.70;99.90;;;;;;6215366;23;20860;-64
2022/10/05 11:00:04;;;;;;;3.80;3.30;;;17.70;99.90;;;;;;6306390;22;20401;-65
2022/10/05 11:03:01;;;;;;;4.37;3.97;;;18.20;99.90;;;;;;6309267;22;20688;-65
2022/10/05 11:05:54;;;;;;;3.30;3.00;;;18.50;99.90;;;;;;6306752;22;20854;-65
2022/10/05 11:08:57;;;;;;;4.60;4.20;;;18.80;99.90;;;;;;6309548;22;20512;-65
2022/10/05 11:12:01;;;;;;;6.40;3.77;;;19.00;99.90;;;;;;6309452;22;20408;-66
2022/10/05 11:14:53;;;;;;;4.87;4.37;;;18.90;99.90;;;;;;6309933;22;20780;-65
2022/10/05 11:17:58;;;;;;;4.73;3.77;;;18.80;99.90;;;;;;6310324;22;20408;-65
2022/10/05 11:21:14;;;;;;;3.73;3.43;;;18.70;99.90;;;;;;6296273;22;20394;-65
2022/10/05 11:24:27;;;;;;;5.40;3.60;;;18.40;99.90;;;;;;6215793;23;20509;-66
2022/10/05 11:27:44;;;;;;;5.50;3.60;;;18.40;99.90;;;;;;6310531;22;20855;-66
2022/10/05 11:30:46;;;;;;;3.60;3.30;;;18.40;99.90;;;;;;6215511;23;20419;-65
2022/10/05 11:33:47;;;;;;;4.23;3.60;;;18.90;99.90;;;;;;6273414;22;20529;-65
2022/10/05 11:36:42;;;;;;;3.83;3.47;;;19.10;99.90;;;;;;6307191;22;20416;-65
2022/10/05 11:39:38;;;;;;;6.57;4.43;;;19.20;99.90;;;;;;6268068;22;20727;-65
2022/10/05 11:42:47;;;;;;;4.43;3.80;;;19.30;99.90;;;;;;6309910;22;20726;-65
2022/10/05 11:45:26;;;;;;;4.63;3.80;;;19.00;99.90;;;;;;6287221;22;20478;-64
2022/10/05 11:48:20;;;;;;;4.20;3.80;;;19.10;99.90;;;;;;6310137;22;20713;-65
2022/10/05 11:51:06;;;;;;;4.73;4.20;;;19.40;99.90;;;;;;6298336;22;20401;-65
2022/10/05 11:53:39;;;;;;;3.90;3.60;;;19.90;99.90;;;;;;6310643;22;20424;-66
2022/10/05 11:56:25;;;;;;;5.30;4.27;;;20.00;99.90;;;;;;6309565;22;20505;-65
2022/10/05 11:58:56;;;;;;;4.43;4.03;;;20.10;99.90;;;;;;6310110;22;20756;-66
2022/10/05 12:01:33;;;;;;;4.23;3.83;;;19.60;99.90;;;;;;6310576;22;20523;-66
2022/10/05 12:04:09;;;;;;;5.60;4.20;;;19.50;99.90;;;;;;6309578;22;20401;-64
2022/10/05 12:06:52;;;;;;;4.47;4.07;;;19.60;99.90;;;;;;6308789;22;20419;-66
2022/10/05 12:09:33;;;;;;;5.07;4.17;;;19.50;99.90;;;;;;6309700;22;20390;-65
2022/10/05 12:12:14;;;;;;;4.20;3.70;;;20.10;99.90;;;;;;6308820;22;20423;-65
2022/10/05 12:14:51;;;;;;;4.37;3.47;;;20.60;99.90;;;;;;6309708;22;20488;-64
2022/10/05 12:17:32;;;;;;;7.50;4.17;;;21.00;99.90;;;;;;6310356;22;20416;-65
2022/10/05 12:20:05;;;;;;;6.27;4.17;;;21.20;99.90;;;;;;6308327;22;20788;-66
2022/10/05 12:22:37;;;;;;;4.30;3.90;;;21.40;99.90;;;;;;6309279;22;20420;-65
2022/10/05 12:25:20;;;;;;;4.27;3.87;;;21.30;99.90;;;;;;6309961;22;20700;-65
2022/10/05 12:27:54;;;;;;;4.93;3.87;;;21.40;99.90;;;;;;6309830;22;20394;-66
2022/10/05 12:30:28;;;;;;;4.70;3.20;;;21.60;99.90;;;;;;6309233;22;20417;-65
2022/10/05 12:33:06;;;;;;;3.30;3.00;;;21.90;99.90;;;;;;6309027;22;20424;-65
2022/10/05 12:35:42;;;;;;;3.90;3.60;;;21.40;99.90;;;;;;6309615;22;20743;-65
2022/10/05 12:38:17;;;;;;;4.40;3.30;;;21.20;99.90;;;;;;6308538;22;20416;-64
2022/10/05 12:40:50;;;;;;;3.83;3.53;;;21.40;99.90;;;;;;6308498;22;20419;-64
2022/10/05 12:43:28;;;;;;;4.63;3.60;;;21.30;99.90;;;;;;6310347;22;20553;-64
2022/10/05 12:46:07;;;;;;;3.10;2.90;;;21.40;99.90;;;;;;6309558;22;20412;-65
2022/10/05 12:48:55;;;;;;;3.73;3.27;;;21.30;99.90;;;;;;6309876;22;20419;-64
2022/10/05 12:51:34;;;;;;;3.80;3.20;;;21.60;99.90;;;;;;6309704;22;20459;-66
2022/10/05 12:54:09;;;;;;;3.60;3.30;;;21.40;99.90;;;;;;6307736;22;20482;-65
2022/10/05 12:56:51;;;;;;;3.77;3.07;;;21.30;99.90;;;;;;6307300;22;20732;-65
2022/10/05 12:59:31;;;;;;;3.37;3.07;;;21.80;99.90;;;;;;6308217;22;20420;-65
2022/10/05 13:02:07;;;;;;;4.20;3.53;;;21.90;99.90;;;;;;6306037;22;20420;-65
2022/10/05 13:04:43;;;;;;;3.60;2.90;;;22.00;99.90;;;;;;6307473;22;20865;-65
2022/10/05 13:07:26;;;;;;;3.63;2.63;;;22.30;99.90;;;;;;6308109;22;20422;-65
2022/10/05 13:10:01;;;;;;;4.23;3.00;;;22.10;99.90;;;;;;6308715;22;20451;-64
2022/10/05 13:12:42;;;;;;;3.17;2.87;;;22.40;99.90;;;;;;6308569;22;20419;-64
2022/10/05 13:15:22;;;;;;;2.97;2.67;;;22.30;99.90;;;;;;6307632;22;20452;-64
2022/10/05 13:18:00;;;;;;;3.20;2.80;;;22.20;99.90;;;;;;6308719;22;20415;-65
2022/10/05 13:20:34;;;;;;;3.60;2.90;;;22.10;99.90;;;;;;6308835;22;20470;-64
2022/10/05 13:23:16;;;;;;;3.93;3.40;;;21.90;99.90;;;;;;6307876;22;20470;-66
2022/10/05 13:25:50;;;;;;;3.33;2.70;;;21.90;99.90;;;;;;6309351;22;20472;-65
2022/10/05 13:28:21;;;;;;;5.60;2.70;;;21.80;99.90;;;;;;6309559;22;20867;-65
2022/10/05 13:31:01;;;;;;;5.90;3.67;;;22.10;99.90;;;;;;6308579;22;20427;-64
2022/10/05 13:33:57;;;;;;;3.77;3.10;;;22.10;99.90;;;;;;6307991;22;20838;-65
2022/10/05 13:36:37;;;;;;;3.80;3.50;;;21.60;99.90;;;;;;6307852;22;20713;-65
2022/10/05 13:39:21;;;;;;;3.30;3.00;;;21.40;99.90;;;;;;6308039;22;20715;-64
2022/10/05 13:41:54;;;;;;;3.77;3.27;;;21.60;99.90;;;;;;6309622;22;20744;-65
2022/10/05 13:44:31;;;;;;;3.63;3.33;;;21.60;99.90;;;;;;6307931;22;20489;-65
2022/10/05 13:47:05;;;;;;;3.47;3.17;;;21.50;99.90;;;;;;6309255;22;20408;-65
2022/10/05 13:49:38;;;;;;;4.60;3.90;;;21.40;99.90;;;;;;6307607;22;20723;-65
2022/10/05 13:52:26;;;;;;;3.30;3.10;;;21.40;99.90;;;;;;6309137;22;20416;-64
2022/10/05 13:54:58;;;;;;;5.70;3.13;;;21.50;99.90;;;;;;6306742;22;20775;-65
2022/10/05 13:57:43;;;;;;;3.77;3.40;;;21.20;99.90;;;;;;6308543;22;20485;-64
2022/10/05 14:00:16;;;;;;;3.23;2.50;;;21.20;99.90;;;;;;6308276;22;20891;-64